Lindsay, Oklahoma
Current Conditions -  °F | °C
As of 7:55 PM on Friday 28 Nov 2014 (Local Time) from KPVJ Reporting Station
Clear Clear  
Wind Chill: 59°   Ceiling: Unl
Heat Index: 59°   Visibility: 10mi
Dew Point: 47°   Wind: 10mph
Humidity: 66%   Direction: 170°S
Pressure: 29.91"   Gusts: NA
Location:  34.83°N, 97.6°W
Report Text: KPVJ 290155Z AUTO 17009KT 10SM CLR 15/09 A2991 RMK AO2 T01480085
Loading
Personal Weather Stations






























Interactive Weather Map New forecast layout! Learn more

10-Day Weather Forecast

Advertisements
Track Severe Weather on mobile